createdAt,value
2023-04-20T00:01:48.241Z,6.67
2023-04-20T00:04:16.763Z,5.77
2023-04-20T00:06:47.148Z,9.83
2023-04-20T00:09:16.303Z,6.03
2023-04-20T00:11:44.679Z,11.53
2023-04-20T00:14:12.906Z,5.67
2023-04-20T00:16:41.195Z,5.13
2023-04-20T00:19:09.534Z,6.50
2023-04-20T00:21:37.881Z,4.70
2023-04-20T00:24:07.776Z,4.17
2023-04-20T00:26:36.056Z,6.13
2023-04-20T00:29:04.283Z,10.50
2023-04-20T00:31:32.874Z,5.27
2023-04-20T00:34:01.156Z,6.40
2023-04-20T00:36:29.829Z,5.70
2023-04-20T00:38:58.096Z,7.70
2023-04-20T00:41:27.670Z,4.13
2023-04-20T00:43:56.074Z,4.60
2023-04-20T00:46:24.732Z,4.60
2023-04-20T00:48:53.206Z,5.77
2023-04-20T00:51:21.474Z,6.90
2023-04-20T00:53:49.901Z,6.10
2023-04-20T00:56:19.220Z,5.37
2023-04-20T00:58:48.808Z,7.87
2023-04-20T01:01:18.366Z,6.50
2023-04-20T01:03:46.950Z,6.07
2023-04-20T01:06:15.977Z,5.20
2023-04-20T01:08:48.106Z,5.97
2023-04-20T01:11:16.392Z,6.27
2023-04-20T01:13:44.995Z,4.90
2023-04-20T01:16:14.805Z,6.20
2023-04-20T01:18:44.371Z,4.40
2023-04-20T01:21:13.059Z,5.07
2023-04-20T01:23:42.637Z,4.07
2023-04-20T01:26:11.522Z,5.90
2023-04-20T01:28:40.240Z,5.33
2023-04-20T01:31:09.131Z,7.83
2023-04-20T01:33:37.540Z,6.13
2023-04-20T01:36:06.575Z,7.83
2023-04-20T01:38:35.065Z,6.30
2023-04-20T01:41:05.496Z,9.37
2023-04-20T01:43:34.652Z,8.27
2023-04-20T01:46:02.972Z,6.80
2023-04-20T01:48:31.227Z,10.33
2023-04-20T01:50:59.625Z,5.90
2023-04-20T01:53:27.950Z,8.67
2023-04-20T01:55:56.184Z,7.50
2023-04-20T01:58:25.935Z,8.30
2023-04-20T02:00:54.242Z,8.07
2023-04-20T02:03:22.698Z,8.37
2023-04-20T02:05:51.162Z,10.93
2023-04-20T02:08:19.442Z,5.87
2023-04-20T02:10:47.639Z,8.90
2023-04-20T02:13:15.904Z,15.00
2023-04-20T02:15:45.814Z,8.50
2023-04-20T02:18:16.096Z,8.80
2023-04-20T02:20:44.409Z,8.10
2023-04-20T02:23:12.790Z,6.70
2023-04-20T02:25:41.053Z,7.13
2023-04-20T02:28:09.222Z,6.97
2023-04-20T02:30:37.394Z,4.20
2023-04-20T02:33:07.500Z,8.70
2023-04-20T02:35:35.750Z,5.47
2023-04-20T02:38:04.020Z,6.23
2023-04-20T02:40:32.243Z,5.33
2023-04-20T02:43:00.448Z,4.83
2023-04-20T02:45:28.804Z,6.07
2023-04-20T02:47:57.346Z,5.53
2023-04-20T02:50:27.037Z,4.80
2023-04-20T02:52:55.229Z,7.90
2023-04-20T02:55:23.523Z,7.40
2023-04-20T02:57:51.804Z,5.77
2023-04-20T03:00:20.465Z,8.67
2023-04-20T03:02:49.183Z,8.77
2023-04-20T03:05:17.752Z,5.23
2023-04-20T03:07:47.338Z,5.40
2023-04-20T03:10:15.525Z,7.70
2023-04-20T03:12:43.696Z,5.40
2023-04-20T03:15:12.291Z,5.20
2023-04-20T03:17:40.487Z,6.33
2023-04-20T03:20:09.342Z,4.47
2023-04-20T03:22:37.544Z,4.73
2023-04-20T03:25:07.778Z,5.07
2023-04-20T03:27:35.988Z,6.60
2023-04-20T03:30:04.317Z,9.13
2023-04-20T03:32:32.834Z,5.63
2023-04-20T03:35:01.263Z,7.13
2023-04-20T03:37:29.446Z,5.50
2023-04-20T03:39:57.652Z,3.60
2023-04-20T03:42:27.263Z,8.10
2023-04-20T03:44:55.509Z,6.70
2023-04-20T03:47:23.776Z,6.50
2023-04-20T03:49:52.128Z,4.33
2023-04-20T03:52:20.388Z,6.73
2023-04-20T03:54:48.629Z,7.00
2023-04-20T03:57:16.857Z,5.80
2023-04-20T03:59:46.364Z,11.00
2023-04-20T04:02:14.673Z,10.30
2023-04-20T04:04:43.492Z,9.27
2023-04-20T04:07:12.504Z,7.70
2023-04-20T04:09:40.769Z,7.43
2023-04-20T04:12:09.236Z,6.00
2023-04-20T04:14:37.498Z,5.17
2023-04-20T04:17:08.129Z,6.10
2023-04-20T04:19:36.520Z,7.53
2023-04-20T04:22:04.738Z,5.97
2023-04-20T04:24:33.477Z,5.73
2023-04-20T04:27:02.130Z,6.40
2023-04-20T04:29:30.343Z,5.33
2023-04-20T04:31:58.612Z,5.27
2023-04-20T04:34:29.815Z,4.70
2023-04-20T04:36:58.207Z,5.53
2023-04-20T04:39:26.809Z,4.13
2023-04-20T04:41:55.068Z,8.03
2023-04-20T04:44:23.258Z,6.90
2023-04-20T04:46:51.793Z,5.60
2023-04-20T04:49:20.512Z,13.03
2023-04-20T04:51:50.306Z,7.73
2023-04-20T04:54:18.604Z,10.37
2023-04-20T04:56:46.851Z,5.30
2023-04-20T04:59:15.233Z,3.57
2023-04-20T05:01:43.544Z,6.53
2023-04-20T05:04:11.910Z,9.47
2023-04-20T05:06:40.452Z,6.27
2023-04-20T05:09:10.088Z,4.80
2023-04-20T05:11:38.385Z,3.10
2023-04-20T05:14:06.631Z,5.80
2023-04-20T05:16:34.925Z,4.70
2023-04-20T05:19:04.042Z,3.83
2023-04-20T05:21:32.717Z,6.30
2023-04-20T05:24:00.974Z,2.10
2023-04-20T05:26:30.613Z,9.40
2023-04-20T05:28:58.834Z,5.20
2023-04-20T05:31:27.325Z,8.10
2023-04-20T05:33:55.934Z,6.80
2023-04-20T05:36:24.245Z,6.87
2023-04-20T05:38:52.420Z,7.97
2023-04-20T05:41:26.653Z,9.10
2023-04-20T05:43:56.965Z,4.83
2023-04-20T05:46:25.319Z,6.90
2023-04-20T05:48:53.635Z,7.30
2023-04-20T05:51:22.358Z,9.53
2023-04-20T05:53:50.564Z,7.30
2023-04-20T05:56:19.393Z,7.53
2023-04-20T05:58:47.908Z,6.37
2023-04-20T06:01:17.486Z,8.10
2023-04-20T06:03:46.013Z,10.87
2023-04-20T06:06:16.182Z,8.47
2023-04-20T06:08:45.177Z,4.10
2023-04-20T06:11:13.402Z,6.93
2023-04-20T06:13:41.601Z,9.70
2023-04-20T06:16:10.974Z,6.67
2023-04-20T06:18:40.954Z,7.07
2023-04-20T06:21:11.072Z,2.33
2023-04-20T06:23:39.302Z,6.40
2023-04-20T06:26:09.623Z,3.53
2023-04-20T06:28:37.870Z,6.57
2023-04-20T06:31:06.318Z,3.23
2023-04-20T06:33:34.775Z,3.37
2023-04-20T06:36:04.326Z,13.33
2023-04-20T06:38:32.482Z,9.10
2023-04-20T06:41:02.452Z,8.30
2023-04-20T06:43:31.085Z,10.07
2023-04-20T06:45:59.302Z,10.97
2023-04-20T06:48:31.574Z,8.20
2023-04-20T06:51:01.177Z,12.50
2023-04-20T06:53:30.702Z,8.13
2023-04-20T06:55:59.156Z,10.50
2023-04-20T06:58:27.390Z,9.67
2023-04-20T07:00:55.670Z,10.67
2023-04-20T07:03:24.285Z,12.20
2023-04-20T07:05:52.686Z,10.97
2023-04-20T07:08:21.021Z,11.03
2023-04-20T07:10:50.610Z,8.13
2023-04-20T07:13:18.857Z,8.53
2023-04-20T07:15:47.324Z,13.13
2023-04-20T07:18:16.042Z,13.57
2023-04-20T07:20:44.208Z,11.07
2023-04-20T07:23:12.491Z,13.93
2023-04-20T07:25:40.666Z,13.27
2023-04-20T07:28:10.429Z,8.67
2023-04-20T07:30:38.809Z,13.37
2023-04-20T07:33:08.303Z,19.33
2023-04-20T07:35:36.534Z,12.30
2023-04-20T07:38:04.720Z,13.33
2023-04-20T07:40:32.887Z,15.60
2023-04-20T07:43:01.105Z,15.90
2023-04-20T07:45:30.745Z,15.37
2023-04-20T07:48:01.484Z,13.83
2023-04-20T07:50:29.995Z,12.73
2023-04-20T07:52:58.227Z,9.97
2023-04-20T07:55:26.447Z,12.70
2023-04-20T07:57:54.655Z,14.63
2023-04-20T08:00:22.937Z,13.20
2023-04-20T08:02:52.626Z,12.23
2023-04-20T08:05:21.100Z,18.67
2023-04-20T08:07:49.489Z,17.40
2023-04-20T08:10:17.727Z,11.33
2023-04-20T08:12:47.097Z,18.63
2023-04-20T08:15:15.374Z,14.63
2023-04-20T08:17:43.604Z,13.40
2023-04-20T08:20:13.321Z,14.23
2023-04-20T08:22:41.581Z,13.70
2023-04-20T08:25:10.160Z,17.60
2023-04-20T08:27:38.420Z,13.80
2023-04-20T08:30:07.842Z,8.60
2023-04-20T08:32:36.255Z,8.03
2023-04-20T08:35:04.791Z,12.60
2023-04-20T08:37:34.413Z,12.77
2023-04-20T08:40:02.622Z,12.07
2023-04-20T08:42:30.848Z,14.07
2023-04-20T08:44:59.549Z,12.70
2023-04-20T08:47:27.743Z,13.80
2023-04-20T08:49:55.961Z,15.23
2023-04-20T08:52:24.170Z,14.17
2023-04-20T08:54:57.451Z,14.40
2023-04-20T08:57:26.783Z,18.20
2023-04-20T08:59:55.100Z,17.53
2023-04-20T09:02:24.205Z,11.57
2023-04-20T09:05:02.369Z,12.57
2023-04-20T09:07:30.678Z,19.27
2023-04-20T09:10:01.116Z,19.70
2023-04-20T09:12:30.034Z,25.77
2023-04-20T09:14:58.272Z,23.20
2023-04-20T09:17:33.835Z,18.93
2023-04-20T09:20:02.211Z,23.83
2023-04-20T09:22:33.673Z,21.07
2023-04-20T09:25:13.619Z,22.23
2023-04-20T09:27:41.832Z,15.77
2023-04-20T09:30:10.595Z,18.33
2023-04-20T09:32:38.817Z,12.80
2023-04-20T09:35:07.822Z,13.80
2023-04-20T09:37:36.321Z,15.20
2023-04-20T09:40:07.827Z,14.13
2023-04-20T09:42:39.052Z,11.87
2023-04-20T09:45:07.859Z,13.63
2023-04-20T09:47:41.663Z,15.30
2023-04-20T09:50:24.716Z,13.67
2023-04-20T09:53:00.214Z,13.07
2023-04-20T09:55:32.078Z,13.27
2023-04-20T09:58:00.480Z,12.30
2023-04-20T10:00:28.860Z,11.50
2023-04-20T10:02:57.206Z,13.23
2023-04-20T10:05:35.592Z,12.60
2023-04-20T10:08:04.120Z,10.03
2023-04-20T10:10:44.311Z,7.70
2023-04-20T10:13:12.560Z,6.70
2023-04-20T10:15:41.531Z,9.30
2023-04-20T10:18:20.349Z,6.70
2023-04-20T10:20:48.691Z,8.70
2023-04-20T10:23:18.732Z,8.10
2023-04-20T10:25:58.297Z,6.10
2023-04-20T10:28:26.693Z,2.97
2023-04-20T10:30:56.309Z,5.70
2023-04-20T10:33:24.551Z,6.13
2023-04-20T10:35:54.957Z,3.40
2023-04-20T10:38:30.368Z,5.80
2023-04-20T10:41:07.454Z,6.47
2023-04-20T10:43:38.922Z,5.40
2023-04-20T10:46:14.914Z,4.40
2023-04-20T10:48:51.018Z,4.47
2023-04-20T10:51:19.357Z,5.30
2023-04-20T10:53:47.631Z,3.57
2023-04-20T10:56:17.160Z,4.60
2023-04-20T10:58:45.361Z,4.90
2023-04-20T11:01:13.550Z,7.17
2023-04-20T11:03:42.001Z,4.67
2023-04-20T11:06:10.310Z,7.90
2023-04-20T11:08:39.736Z,8.73
2023-04-20T11:11:08.767Z,6.37
2023-04-20T11:13:39.744Z,6.57
2023-04-20T11:16:11.843Z,9.40
2023-04-20T11:18:48.145Z,5.03
2023-04-20T11:21:16.321Z,4.87
2023-04-20T11:23:44.840Z,4.00
2023-04-20T11:26:13.132Z,5.50
2023-04-20T11:28:53.320Z,5.93
2023-04-20T11:31:23.569Z,4.43
2023-04-20T11:33:52.049Z,6.00
2023-04-20T11:36:20.868Z,5.13
2023-04-20T11:38:49.227Z,6.30
2023-04-20T11:41:18.684Z,5.23
2023-04-20T11:43:49.286Z,7.07
2023-04-20T11:46:18.184Z,3.93
2023-04-20T11:48:46.478Z,7.30
2023-04-20T11:51:14.812Z,4.87
2023-04-20T11:53:43.147Z,5.43
2023-04-20T11:56:11.343Z,5.90
2023-04-20T11:58:39.585Z,5.33
2023-04-20T12:01:09.182Z,5.33
2023-04-20T12:03:37.997Z,5.33
2023-04-20T12:06:06.522Z,8.80
2023-04-20T12:08:34.679Z,12.30
2023-04-20T12:11:02.835Z,5.10
2023-04-20T12:13:31.395Z,7.97
2023-04-20T12:15:59.630Z,6.17
2023-04-20T12:18:29.445Z,3.70
2023-04-20T12:20:57.665Z,6.00
2023-04-20T12:23:25.893Z,7.90
2023-04-20T12:25:54.254Z,4.43
2023-04-20T12:28:22.551Z,5.00
2023-04-20T12:30:50.899Z,4.10
2023-04-20T12:33:19.087Z,4.43
2023-04-20T12:35:48.691Z,6.53
2023-04-20T12:38:16.963Z,7.10
2023-04-20T12:40:45.325Z,6.90
2023-04-20T12:43:13.657Z,6.43
2023-04-20T12:45:41.879Z,7.10
2023-04-20T12:48:10.285Z,6.57
2023-04-20T12:50:40.234Z,6.47
2023-04-20T12:53:09.804Z,5.30
2023-04-20T12:55:38.046Z,6.03
2023-04-20T12:58:06.300Z,5.10
2023-04-20T13:00:34.492Z,9.33
2023-04-20T13:03:02.826Z,7.27
2023-04-20T13:05:31.277Z,6.43
2023-04-20T13:07:59.602Z,5.50
2023-04-20T13:10:29.733Z,5.60
2023-04-20T13:12:59.593Z,6.23
2023-04-20T13:15:38.067Z,6.40
2023-04-20T13:18:09.505Z,9.40
2023-04-20T13:20:38.081Z,8.97
2023-04-20T13:23:06.813Z,7.70
2023-04-20T13:25:38.308Z,7.80
2023-04-20T13:28:07.176Z,6.50
2023-04-20T13:30:35.498Z,9.90
2023-04-20T13:33:03.678Z,9.17
2023-04-20T13:35:31.935Z,7.50
2023-04-20T13:38:00.154Z,6.40
2023-04-20T13:40:28.329Z,9.07
2023-04-20T13:42:58.414Z,9.37
2023-04-20T13:45:27.926Z,10.90
2023-04-20T13:47:56.288Z,11.37
2023-04-20T13:50:24.575Z,9.90
2023-04-20T13:52:52.818Z,8.73
2023-04-20T13:55:21.352Z,12.17
2023-04-20T13:57:49.615Z,7.10
2023-04-20T14:00:19.713Z,6.63
2023-04-20T14:02:48.136Z,12.73
2023-04-20T14:05:16.540Z,11.53
2023-04-20T14:07:44.735Z,9.27
2023-04-20T14:10:13.210Z,13.20
2023-04-20T14:12:41.389Z,7.80
2023-04-20T14:15:10.339Z,11.80
2023-04-20T14:17:39.986Z,12.67
2023-04-20T14:20:09.352Z,7.60
2023-04-20T14:22:37.629Z,11.63
2023-04-20T14:25:06.206Z,11.73
2023-04-20T14:27:34.400Z,9.30
2023-04-20T14:30:02.667Z,12.10
2023-04-20T14:32:31.722Z,10.93
2023-04-20T14:35:03.241Z,8.60
2023-04-20T14:37:33.095Z,9.17
2023-04-20T14:40:01.369Z,9.17
2023-04-20T14:42:29.631Z,10.73
2023-04-20T14:44:57.860Z,8.73
2023-04-20T14:47:26.175Z,9.43
2023-04-20T14:49:54.430Z,6.03
2023-04-20T14:52:24.051Z,8.57
2023-04-20T14:54:52.243Z,11.20
2023-04-20T14:57:20.591Z,9.23
2023-04-20T14:59:48.781Z,9.37
2023-04-20T15:02:18.310Z,7.83
2023-04-20T15:04:46.784Z,9.63
2023-04-20T15:07:15.058Z,7.30
2023-04-20T15:09:44.715Z,11.60
2023-04-20T15:12:12.947Z,8.70
2023-04-20T15:14:41.205Z,7.80
2023-04-20T15:17:09.438Z,8.67
2023-04-20T15:19:37.760Z,10.33
2023-04-20T15:22:06.016Z,7.90
2023-04-20T15:24:35.446Z,11.03
2023-04-20T15:27:06.296Z,8.13
2023-04-20T15:29:35.897Z,9.00
2023-04-20T15:32:04.353Z,9.80
2023-04-20T15:34:32.556Z,11.40
2023-04-20T15:37:01.037Z,5.80
2023-04-20T15:39:29.309Z,9.60
2023-04-20T15:41:57.734Z,7.60
2023-04-20T15:44:27.681Z,9.13
2023-04-20T15:46:56.093Z,8.87
2023-04-20T15:49:24.302Z,8.50
2023-04-20T15:51:52.476Z,11.47
2023-04-20T15:54:23.681Z,8.77
2023-04-20T15:56:52.114Z,9.67
2023-04-20T15:59:20.765Z,5.47
2023-04-20T16:01:50.456Z,7.40
2023-04-20T16:04:19.177Z,11.80
2023-04-20T16:06:47.668Z,7.40
2023-04-20T16:09:15.988Z,8.73
2023-04-20T16:11:44.254Z,9.40
2023-04-20T16:14:12.468Z,8.30
2023-04-20T16:16:40.676Z,8.93
2023-04-20T16:19:10.507Z,7.97
2023-04-20T16:21:38.743Z,11.07
2023-04-20T16:24:07.096Z,9.47
2023-04-20T16:26:35.368Z,8.30
2023-04-20T16:29:03.642Z,7.90
2023-04-20T16:31:31.989Z,7.70
2023-04-20T16:34:00.667Z,10.23
2023-04-20T16:36:30.266Z,9.10
2023-04-20T16:38:58.436Z,10.43
2023-04-20T16:41:27.114Z,6.63
2023-04-20T16:43:55.579Z,10.00
2023-04-20T16:46:23.883Z,7.03
2023-04-20T16:48:52.486Z,8.40
2023-04-20T16:51:20.692Z,9.97
2023-04-20T16:53:50.246Z,10.57
2023-04-20T16:56:18.507Z,9.10
2023-04-20T16:58:46.990Z,9.30
2023-04-20T17:01:15.577Z,9.23
2023-04-20T17:03:44.310Z,7.77
2023-04-20T17:06:12.666Z,8.47
2023-04-20T17:08:40.875Z,8.47
2023-04-20T17:11:10.477Z,9.60
2023-04-20T17:13:38.705Z,7.17
2023-04-20T17:16:07.135Z,9.20
2023-04-20T17:18:35.430Z,12.67
2023-04-20T17:21:03.718Z,13.67
2023-04-20T17:23:32.676Z,11.50
2023-04-20T17:26:00.894Z,8.23
2023-04-20T17:28:30.590Z,7.23
2023-04-20T17:30:58.854Z,8.03
2023-04-20T17:33:27.082Z,9.70
2023-04-20T17:35:56.758Z,8.60
2023-04-20T17:38:25.043Z,7.60
2023-04-20T17:40:53.473Z,8.23
2023-04-20T17:43:21.708Z,6.33
2023-04-20T17:45:51.529Z,7.03
2023-04-20T17:48:19.717Z,7.70
2023-04-20T17:50:49.331Z,9.10
2023-04-20T17:53:17.512Z,9.90
2023-04-20T17:55:45.851Z,9.37
2023-04-20T17:58:14.103Z,8.23
2023-04-20T18:00:43.040Z,11.60
2023-04-20T18:03:14.855Z,8.00
2023-04-20T18:05:43.453Z,8.70
2023-04-20T18:08:13.273Z,8.43
2023-04-20T18:10:41.500Z,9.13
2023-04-20T18:13:09.661Z,6.60
2023-04-20T18:15:37.888Z,8.47
2023-04-20T18:18:06.263Z,9.10
2023-04-20T18:20:36.007Z,8.50
2023-04-20T18:23:04.342Z,12.00
2023-04-20T18:25:32.526Z,8.33
2023-04-20T18:28:00.818Z,8.40
2023-04-20T18:30:29.133Z,9.33
2023-04-20T18:32:57.363Z,10.13
2023-04-20T18:35:25.780Z,9.70
2023-04-20T18:37:55.495Z,8.60
2023-04-20T18:40:23.819Z,8.27
2023-04-20T18:42:52.068Z,8.70
2023-04-20T18:45:21.725Z,10.87
2023-04-20T18:47:50.123Z,8.83
2023-04-20T18:50:18.492Z,10.73
2023-04-20T18:52:46.745Z,8.03
2023-04-20T18:55:16.418Z,9.67
2023-04-20T18:57:44.663Z,9.60
2023-04-20T19:00:14.226Z,10.07
2023-04-20T19:02:42.630Z,10.27
2023-04-20T19:05:12.742Z,11.23
2023-04-20T19:07:41.013Z,11.47
2023-04-20T19:10:09.901Z,12.27
2023-04-20T19:12:39.586Z,10.43
2023-04-20T19:15:08.854Z,9.70
2023-04-20T19:17:37.204Z,11.10
2023-04-20T19:20:06.057Z,11.40
2023-04-20T19:22:34.377Z,8.97
2023-04-20T19:25:02.628Z,9.03
2023-04-20T19:27:30.947Z,14.70
2023-04-20T19:30:00.550Z,10.43
2023-04-20T19:32:28.916Z,11.63
2023-04-20T19:34:59.129Z,11.90
2023-04-20T19:37:27.461Z,13.40
2023-04-20T19:39:55.704Z,11.30
2023-04-20T19:42:24.044Z,11.27
2023-04-20T19:44:53.496Z,11.13
2023-04-20T19:47:23.059Z,10.80
2023-04-20T19:49:51.419Z,10.00
2023-04-20T19:52:19.684Z,11.33
2023-04-20T19:54:47.976Z,10.83
2023-04-20T19:57:16.238Z,11.40
2023-04-20T19:59:44.491Z,14.10
2023-04-20T20:02:12.767Z,12.48
2023-04-20T20:04:42.530Z,14.23
2023-04-20T20:07:10.930Z,11.40
2023-04-20T20:09:40.755Z,16.83
2023-04-20T20:12:10.717Z,10.20
2023-04-20T20:14:39.084Z,11.20
2023-04-20T20:17:07.446Z,12.17
2023-04-20T20:19:35.634Z,13.83
2023-04-20T20:22:05.189Z,11.43
2023-04-20T20:24:33.442Z,13.43
2023-04-20T20:27:02.284Z,9.53
2023-04-20T20:29:30.520Z,12.70
2023-04-20T20:31:58.754Z,12.73
2023-04-20T20:34:27.009Z,13.17
2023-04-20T20:36:55.248Z,10.03
2023-04-20T20:39:24.853Z,13.97
2023-04-20T20:41:53.658Z,11.50
2023-04-20T20:44:22.052Z,15.47
2023-04-20T20:46:50.847Z,11.50
2023-04-20T20:49:19.305Z,13.00
2023-04-20T20:51:47.758Z,12.03
2023-04-20T20:54:15.952Z,13.20
2023-04-20T20:56:45.632Z,12.77
2023-04-20T20:59:13.885Z,12.83
2023-04-20T21:01:42.110Z,14.03
2023-04-20T21:04:10.580Z,14.20
2023-04-20T21:06:38.961Z,13.93
2023-04-20T21:09:07.165Z,12.40
2023-04-20T21:11:35.354Z,13.03
2023-04-20T21:14:05.094Z,15.43
2023-04-20T21:16:33.367Z,13.77
2023-04-20T21:19:01.724Z,14.23
2023-04-20T21:21:29.934Z,12.17
2023-04-20T21:23:58.095Z,15.90
2023-04-20T21:26:26.312Z,14.07
2023-04-20T21:28:54.564Z,11.47
2023-04-20T21:31:24.150Z,14.87
2023-04-20T21:33:52.349Z,17.30
2023-04-20T21:36:20.667Z,11.07
2023-04-20T21:38:48.960Z,18.00
2023-04-20T21:41:17.233Z,19.70
2023-04-20T21:43:45.525Z,13.47
2023-04-20T21:46:15.824Z,15.50
2023-04-20T21:48:45.414Z,20.07
2023-04-20T21:51:16.648Z,17.57
2023-04-20T21:53:44.986Z,17.07
2023-04-20T21:56:14.716Z,16.70
2023-04-20T21:58:42.925Z,18.40
2023-04-20T22:01:11.237Z,16.33
2023-04-20T22:03:39.674Z,11.00
2023-04-20T22:06:09.569Z,13.87
2023-04-20T22:08:39.872Z,17.03
2023-04-20T22:11:08.228Z,18.53
2023-04-20T22:13:37.044Z,23.93
2023-04-20T22:16:05.537Z,11.90
2023-04-20T22:18:33.829Z,20.73
2023-04-20T22:21:02.056Z,14.90
2023-04-20T22:23:31.608Z,20.73
2023-04-20T22:25:59.890Z,12.47
2023-04-20T22:28:28.073Z,19.40
2023-04-20T22:30:56.686Z,20.60
2023-04-20T22:33:25.361Z,19.37
2023-04-20T22:35:53.636Z,19.07
2023-04-20T22:38:21.881Z,19.20
2023-04-20T22:40:51.465Z,21.70
2023-04-20T22:43:20.381Z,18.80
2023-04-20T22:45:49.076Z,20.20
2023-04-20T22:48:17.514Z,18.00
2023-04-20T22:50:45.920Z,20.77
2023-04-20T22:53:14.350Z,12.77
2023-04-20T22:55:42.969Z,22.37
2023-04-20T22:58:12.568Z,15.00
2023-04-20T23:00:40.836Z,13.67
2023-04-20T23:03:09.348Z,18.73
2023-04-20T23:05:39.028Z,18.40
2023-04-20T23:08:07.599Z,21.83
2023-04-20T23:10:35.883Z,17.73
2023-04-20T23:13:04.997Z,21.07
2023-04-20T23:15:34.909Z,22.47
2023-04-20T23:18:03.504Z,18.43
2023-04-20T23:20:31.805Z,17.93
2023-04-20T23:23:00.003Z,19.50
2023-04-20T23:25:28.232Z,19.93
2023-04-20T23:27:56.454Z,20.60
2023-04-20T23:30:24.831Z,19.43
2023-04-20T23:32:54.493Z,23.37
2023-04-20T23:35:23.066Z,16.57
2023-04-20T23:37:51.905Z,15.67
2023-04-20T23:40:20.241Z,14.13
2023-04-20T23:42:48.505Z,14.00
2023-04-20T23:45:16.766Z,15.20
2023-04-20T23:47:45.016Z,18.77
2023-04-20T23:50:14.737Z,19.83
2023-04-20T23:52:42.999Z,18.60
2023-04-20T23:55:11.637Z,13.23
2023-04-20T23:57:39.870Z,22.87
